Time;durP1;ratioP1;P1;durP2;ratioP2;P2;SDS_P1;SDS_P2;PMS_P1;PMS_P2;Temp;Humidity;BMP_temperature;BMP_pressure;BME280_temperature;BME280_humidity;BME280_pressure;Samples;Min_cycle;Max_cycle;Signal;HPM_P1;HPM_P2
2024/04/11 00:01:08;;;;;;;5.80;2.42;;;9.80;94.20;;;;;;5488063;26;20005;-78
2024/04/11 00:03:35;;;;;;;7.53;2.65;;;9.80;94.20;;;;;;5486725;26;20434;-80
2024/04/11 00:06:03;;;;;;;3.80;2.55;;;9.70;94.20;;;;;;5485438;26;20015;-79
2024/04/11 00:08:30;;;;;;;4.75;2.33;;;9.70;94.50;;;;;;5471841;26;20002;-78
2024/04/11 00:10:57;;;;;;;7.45;2.45;;;9.70;94.40;;;;;;5464699;26;20013;-78
2024/04/11 00:13:24;;;;;;;6.35;2.70;;;9.80;94.50;;;;;;5478735;26;20010;-78
2024/04/11 00:15:53;;;;;;;4.35;2.17;;;9.70;94.70;;;;;;5468134;26;20009;-78
2024/04/11 00:18:23;;;;;;;4.20;2.03;;;9.70;94.70;;;;;;5467761;26;19994;-79
2024/04/11 00:20:54;;;;;;;3.92;2.20;;;9.70;95.00;;;;;;5475329;26;19994;-79
2024/04/11 00:23:25;;;;;;;7.70;2.80;;;9.70;95.40;;;;;;5473981;26;19995;-79
2024/04/11 00:25:58;;;;;;;3.45;2.15;;;9.70;95.40;;;;;;5464758;26;20034;-79
2024/04/11 00:28:26;;;;;;;3.08;2.08;;;9.70;95.50;;;;;;5479115;26;20010;-78
2024/04/11 00:30:53;;;;;;;7.97;2.30;;;9.70;95.70;;;;;;5455765;26;20015;-79
2024/04/11 00:33:21;;;;;;;5.55;2.35;;;9.70;95.30;;;;;;5454145;26;19998;-78
2024/04/11 00:35:52;;;;;;;7.53;2.28;;;9.70;95.20;;;;;;5486518;26;20437;-79
2024/04/11 00:38:20;;;;;;;5.40;2.47;;;9.70;95.00;;;;;;5483247;26;20020;-78
2024/04/11 00:40:58;;;;;;;5.28;2.58;;;9.70;95.30;;;;;;5449829;26;20428;-78
2024/04/11 00:43:32;;;;;;;3.65;2.15;;;9.70;95.70;;;;;;5430567;26;19999;-79
2024/04/11 00:46:00;;;;;;;4.70;2.40;;;9.70;95.30;;;;;;5480642;26;19998;-78
2024/04/11 00:48:27;;;;;;;6.28;2.20;;;9.70;95.50;;;;;;5479285;26;20006;-79
2024/04/11 00:50:55;;;;;;;5.78;2.55;;;9.70;95.90;;;;;;5476680;26;20047;-79
2024/04/11 00:53:23;;;;;;;4.50;2.30;;;9.70;95.50;;;;;;5475569;26;20006;-79
2024/04/11 00:55:51;;;;;;;5.90;2.55;;;9.70;95.50;;;;;;5471867;26;20006;-78
2024/04/11 00:58:18;;;;;;;3.78;2.22;;;9.70;95.60;;;;;;5470986;26;20312;-78
2024/04/11 01:00:45;;;;;;;8.30;2.40;;;9.70;95.60;;;;;;5472826;26;20097;-78
2024/04/11 01:03:13;;;;;;;5.25;2.47;;;9.70;95.30;;;;;;5477893;26;19998;-78
2024/04/11 01:05:40;;;;;;;3.67;2.35;;;9.70;94.90;;;;;;5480960;26;20477;-79
2024/04/11 01:08:07;;;;;;;4.05;2.60;;;9.70;95.00;;;;;;5476953;26;19995;-78
2024/04/11 01:10:35;;;;;;;9.40;2.47;;;9.70;95.00;;;;;;5478996;26;20007;-78
2024/04/11 01:13:04;;;;;;;3.25;2.33;;;9.70;95.60;;;;;;5461658;26;20003;-79
2024/04/11 01:15:34;;;;;;;3.50;2.13;;;9.70;95.90;;;;;;5454729;26;19996;-78
2024/04/11 01:18:02;;;;;;;3.13;1.80;;;9.70;96.10;;;;;;5455742;26;20009;-78
2024/04/11 01:20:54;;;;;;;3.88;2.30;;;9.70;96.10;;;;;;5458661;26;20006;-78
2024/04/11 01:23:22;;;;;;;5.70;2.17;;;9.70;95.80;;;;;;5461078;26;20300;-78
2024/04/11 01:25:49;;;;;;;6.18;2.92;;;9.70;95.50;;;;;;5473788;26;20064;-79
2024/04/11 01:28:16;;;;;;;5.40;2.25;;;9.70;95.20;;;;;;5467997;26;20311;-78
2024/04/11 01:30:43;;;;;;;4.00;2.25;;;9.70;95.10;;;;;;5466249;26;20293;-78
2024/04/11 01:33:10;;;;;;;5.25;2.33;;;9.70;95.10;;;;;;5470657;26;20469;-78
2024/04/11 01:35:40;;;;;;;3.78;2.47;;;9.70;95.30;;;;;;5466976;26;20005;-78
2024/04/11 01:38:07;;;;;;;4.63;2.33;;;9.70;95.20;;;;;;5468468;26;20010;-78
2024/04/11 01:40:41;;;;;;;3.42;1.98;;;9.70;95.20;;;;;;5463205;26;20431;-79
2024/04/11 01:43:09;;;;;;;;;;;9.60;95.10;;;;;;5446808;26;20005;-78
2024/04/11 01:45:37;;;;;;;4.53;2.10;;;9.70;95.00;;;;;;5480548;26;19989;-77
2024/04/11 01:48:05;;;;;;;4.20;2.50;;;9.70;95.20;;;;;;5482462;26;20435;-77
2024/04/11 01:50:32;;;;;;;3.80;2.17;;;9.70;95.40;;;;;;5486598;26;20000;-79
2024/04/11 01:52:59;;;;;;;4.57;2.13;;;9.70;95.60;;;;;;5489341;26;20005;-79
2024/04/11 01:55:26;;;;;;;3.92;2.20;;;9.70;95.80;;;;;;5486005;26;20010;-78
2024/04/11 01:57:53;;;;;;;4.70;2.17;;;9.70;96.10;;;;;;5472968;26;20002;-80
2024/04/11 02:00:20;;;;;;;5.18;2.25;;;9.70;96.00;;;;;;5459385;26;19999;-79
2024/04/11 02:02:49;;;;;;;4.78;2.30;;;9.70;95.60;;;;;;5477331;26;19996;-79
2024/04/11 02:05:20;;;;;;;5.55;2.08;;;9.70;96.00;;;;;;5475766;26;19998;-78
2024/04/11 02:07:47;;;;;;;4.10;2.53;;;9.70;95.80;;;;;;5504517;26;19995;-78
2024/04/11 02:10:15;;;;;;;8.50;2.65;;;9.70;96.20;;;;;;5497977;26;19998;-78
2024/04/11 02:12:42;;;;;;;3.28;2.53;;;9.70;96.10;;;;;;5467717;26;20006;-78
2024/04/11 02:15:12;;;;;;;3.05;1.90;;;9.70;96.20;;;;;;5472150;26;20068;-77
2024/04/11 02:17:39;;;;;;;3.97;2.17;;;9.80;95.80;;;;;;5476786;26;20002;-78
2024/04/11 02:20:10;;;;;;;4.00;1.92;;;9.70;95.70;;;;;;5476746;26;20307;-78
2024/04/11 02:22:38;;;;;;;3.28;1.88;;;9.70;95.40;;;;;;5461539;26;20415;-78
2024/04/11 02:25:07;;;;;;;3.05;2.00;;;9.70;95.50;;;;;;5475585;26;20027;-79
2024/04/11 02:27:34;;;;;;;3.97;2.28;;;9.80;95.50;;;;;;5456203;26;20303;-77
2024/04/11 02:30:05;;;;;;;5.28;2.13;;;9.80;95.20;;;;;;5487135;26;20011;-78
2024/04/11 02:32:33;;;;;;;3.50;2.00;;;9.80;95.70;;;;;;5480122;26;19999;-77
2024/04/11 02:35:05;;;;;;;4.25;2.30;;;9.70;96.20;;;;;;5455866;26;20067;-79
2024/04/11 02:37:33;;;;;;;4.35;1.92;;;9.80;96.00;;;;;;5459451;26;19994;-78
2024/04/11 02:40:01;;;;;;;5.72;2.22;;;9.80;95.80;;;;;;5476276;26;20416;-78
2024/04/11 02:42:28;;;;;;;4.63;2.35;;;9.70;95.80;;;;;;5468532;26;20011;-80
2024/04/11 02:44:56;;;;;;;6.40;2.50;;;9.70;95.70;;;;;;5465912;26;20006;-78
2024/04/11 02:47:23;;;;;;;5.68;2.30;;;9.70;95.80;;;;;;5467540;26;19994;-79
2024/04/11 02:49:50;;;;;;;5.63;2.13;;;9.70;95.70;;;;;;5469885;26;19998;-78
2024/04/11 02:52:17;;;;;;;3.15;2.20;;;9.70;95.90;;;;;;5469542;26;20010;-78
2024/04/11 02:54:44;;;;;;;3.67;2.33;;;9.70;95.70;;;;;;5460682;26;20008;-79
2024/04/11 02:57:11;;;;;;;5.57;2.20;;;9.70;95.90;;;;;;5429066;26;19996;-78
2024/04/11 02:59:38;;;;;;;3.75;2.03;;;9.70;95.90;;;;;;5471217;26;20002;-79
2024/04/11 03:02:05;;;;;;;7.80;2.28;;;9.70;95.70;;;;;;5475131;26;19999;-79
2024/04/11 03:04:32;;;;;;;4.15;2.20;;;9.70;95.60;;;;;;5469078;26;20068;-80
2024/04/11 03:06:59;;;;;;;6.85;2.08;;;9.70;95.60;;;;;;5486642;26;20464;-78
2024/04/11 03:09:28;;;;;;;4.00;2.00;;;9.70;95.50;;;;;;5486650;26;20323;-78
2024/04/11 03:11:55;;;;;;;3.47;2.15;;;9.70;95.40;;;;;;5483400;26;20410;-79
2024/04/11 03:14:26;;;;;;;4.22;1.90;;;9.70;95.70;;;;;;5475270;26;20011;-78
2024/04/11 03:16:53;;;;;;;6.03;2.30;;;9.70;96.00;;;;;;5456401;26;20003;-78
2024/04/11 03:19:20;;;;;;;3.05;1.98;;;9.70;95.70;;;;;;5478294;26;20296;-78
2024/04/11 03:21:47;;;;;;;3.25;2.03;;;9.70;95.60;;;;;;5475656;26;19994;-78
2024/04/11 03:24:15;;;;;;;2.85;2.10;;;9.80;95.90;;;;;;5475667;26;20064;-78
2024/04/11 03:26:43;;;;;;;4.80;1.95;;;9.80;95.70;;;;;;5474937;26;20007;-78
2024/04/11 03:29:10;;;;;;;5.50;2.00;;;9.80;95.90;;;;;;5470683;26;20024;-78
2024/04/11 03:31:39;;;;;;;4.10;2.30;;;9.80;95.60;;;;;;5473672;26;20427;-78
2024/04/11 03:34:08;;;;;;;5.55;1.80;;;9.80;95.60;;;;;;5433648;26;20035;-78
2024/04/11 03:36:36;;;;;;;2.10;1.83;;;9.80;95.60;;;;;;5479241;26;20419;-78
2024/04/11 03:39:11;;;;;;;3.35;2.08;;;9.70;95.50;;;;;;5479035;26;20064;-78
2024/04/11 03:41:52;;;;;;;3.85;2.00;;;9.70;95.90;;;;;;5459560;26;20062;-78
2024/04/11 03:44:19;;;;;;;3.20;2.08;;;9.80;96.10;;;;;;5457110;26;20332;-78
2024/04/11 03:46:47;;;;;;;2.83;2.10;;;9.80;96.10;;;;;;5455409;26;20007;-78
2024/04/11 03:49:14;;;;;;;3.40;2.20;;;9.80;96.70;;;;;;5481951;26;20011;-78
2024/04/11 03:51:44;;;;;;;4.28;1.95;;;9.80;96.70;;;;;;5483850;26;19998;-78
2024/04/11 03:54:13;;;;;;;4.50;2.22;;;9.80;97.10;;;;;;5481872;26;20005;-78
2024/04/11 03:56:40;;;;;;;3.30;2.22;;;9.80;97.10;;;;;;5480014;26;19999;-78
2024/04/11 03:59:07;;;;;;;4.95;1.80;;;9.80;97.30;;;;;;5475337;26;19998;-78
2024/04/11 04:01:36;;;;;;;3.15;2.35;;;9.80;97.10;;;;;;5471405;26;20019;-79
2024/04/11 04:04:04;;;;;;;7.68;2.35;;;9.80;97.50;;;;;;5466555;26;20016;-79
2024/04/11 04:06:34;;;;;;;7.18;2.40;;;9.80;97.50;;;;;;5460167;26;20254;-78
2024/04/11 04:09:07;;;;;;;4.97;2.40;;;9.80;97.60;;;;;;5464699;26;20007;-77
2024/04/11 04:11:41;;;;;;;6.35;2.45;;;9.80;97.50;;;;;;5474967;26;20403;-78
2024/04/11 04:14:09;;;;;;;3.58;2.17;;;9.80;97.40;;;;;;5466312;26;20419;-78
2024/04/11 04:16:41;;;;;;;5.45;3.20;;;9.80;97.30;;;;;;5467491;26;20075;-79
2024/04/11 04:19:09;;;;;;;6.80;4.10;;;9.80;97.30;;;;;;5478153;26;20053;-79
2024/04/11 04:21:37;;;;;;;11.98;5.85;;;9.80;97.60;;;;;;5450547;26;19999;-78
2024/04/11 04:24:05;;;;;;;37.55;20.50;;;9.80;97.40;;;;;;5482457;26;20394;-77
2024/04/11 04:26:38;;;;;;;30.85;18.45;;;9.80;97.40;;;;;;5432446;26;20042;-76
2024/04/11 04:29:05;;;;;;;12.88;8.65;;;9.80;97.60;;;;;;5458157;26;20309;-78
2024/04/11 04:31:33;;;;;;;10.07;4.55;;;9.80;97.80;;;;;;5484007;26;20063;-76
2024/04/11 04:34:03;;;;;;;3.78;3.05;;;9.80;97.70;;;;;;5479870;26;19999;-78
2024/04/11 04:36:40;;;;;;;3.90;2.58;;;9.80;97.70;;;;;;5460209;26;20010;-76
2024/04/11 04:39:13;;;;;;;6.57;2.50;;;9.80;97.70;;;;;;5470065;26;20010;-78
2024/04/11 04:41:42;;;;;;;4.33;2.20;;;9.80;97.50;;;;;;5470301;26;20006;-78
2024/04/11 04:44:09;;;;;;;3.63;2.33;;;9.90;97.20;;;;;;5472753;26;20026;-78
2024/04/11 04:46:36;;;;;;;3.83;2.45;;;9.90;96.80;;;;;;5474320;26;20014;-78
2024/04/11 04:49:09;;;;;;;6.20;2.42;;;9.90;96.40;;;;;;5477215;26;20455;-78
2024/04/11 04:51:38;;;;;;;;;;;9.90;96.80;;;;;;5473131;26;20060;-77
2024/04/11 04:54:08;;;;;;;4.60;2.65;;;9.90;97.70;;;;;;5461717;26;19931;-78
2024/04/11 04:56:36;;;;;;;7.25;2.70;;;9.90;97.30;;;;;;5452137;26;20027;-77
2024/04/11 04:59:03;;;;;;;6.32;3.10;;;9.90;97.20;;;;;;5444565;26;19995;-77
2024/04/11 05:01:33;;;;;;;6.03;2.97;;;10.00;96.60;;;;;;5455073;26;19995;-77
2024/04/11 05:04:00;;;;;;;4.47;2.63;;;10.00;96.60;;;;;;5460797;26;20014;-77
2024/04/11 05:06:29;;;;;;;4.32;2.78;;;10.00;96.20;;;;;;5485903;26;19998;-78
2024/04/11 05:08:59;;;;;;;5.70;3.08;;;10.00;96.40;;;;;;5455166;26;20364;-77
2024/04/11 05:11:31;;;;;;;5.43;2.72;;;10.00;96.30;;;;;;5461753;26;20002;-78
2024/04/11 05:13:59;;;;;;;7.07;2.97;;;10.00;96.30;;;;;;5430885;26;20023;-77
2024/04/11 05:16:28;;;;;;;5.78;3.20;;;10.00;96.80;;;;;;5472544;26;20325;-77
2024/04/11 05:18:58;;;;;;;6.72;3.53;;;10.00;96.50;;;;;;5458435;26;20007;-77
2024/04/11 05:21:26;;;;;;;6.75;3.78;;;10.00;96.40;;;;;;5467895;26;20485;-77
2024/04/11 05:23:56;;;;;;;7.10;4.25;;;10.00;96.00;;;;;;5465464;26;20009;-77
2024/04/11 05:26:24;;;;;;;8.10;3.95;;;10.00;95.90;;;;;;5474631;26;20462;-77
2024/04/11 05:28:54;;;;;;;9.32;4.22;;;10.00;95.90;;;;;;5442612;26;19999;-77
2024/04/11 05:31:27;;;;;;;5.07;4.05;;;10.00;95.90;;;;;;5461151;26;20365;-76
2024/04/11 05:34:06;;;;;;;9.40;4.18;;;10.00;96.00;;;;;;5460767;26;20011;-77
2024/04/11 05:36:41;;;;;;;7.18;4.65;;;10.00;95.80;;;;;;5454795;26;19999;-77
2024/04/11 05:39:14;;;;;;;7.70;3.95;;;10.00;95.80;;;;;;5479909;26;20007;-77
2024/04/11 05:41:45;;;;;;;9.02;4.68;;;10.00;95.80;;;;;;5467888;26;20414;-77
2024/04/11 05:44:12;;;;;;;9.13;4.22;;;10.00;95.70;;;;;;5432371;26;20002;-77
2024/04/11 05:46:40;;;;;;;8.98;3.90;;;10.00;95.60;;;;;;5460585;26;20002;-77
2024/04/11 05:49:11;;;;;;;6.85;4.07;;;10.10;95.40;;;;;;5459784;26;20007;-77
2024/04/11 05:51:41;;;;;;;8.25;4.15;;;10.10;95.10;;;;;;5460912;26;20075;-77
2024/04/11 05:54:09;;;;;;;7.80;4.05;;;10.20;94.90;;;;;;5461689;26;20048;-77
2024/04/11 05:56:39;;;;;;;7.32;3.78;;;10.20;95.10;;;;;;5460306;26;20327;-77
2024/04/11 05:59:08;;;;;;;19.65;3.95;;;10.20;94.60;;;;;;5470897;26;20071;-77
2024/04/11 06:01:36;;;;;;;9.18;3.97;;;10.30;94.50;;;;;;5464193;26;19996;-77
2024/04/11 06:04:06;;;;;;;6.93;3.88;;;10.30;94.70;;;;;;5463989;26;20010;-77
2024/04/11 06:06:34;;;;;;;9.60;3.90;;;10.40;94.40;;;;;;5464025;26;19995;-77
2024/04/11 06:09:02;;;;;;;6.53;3.83;;;10.50;94.10;;;;;;5458726;26;19999;-77
2024/04/11 06:11:29;;;;;;;5.80;4.18;;;10.50;94.00;;;;;;5477119;26;20072;-78
2024/04/11 06:13:59;;;;;;;10.43;3.80;;;10.60;94.00;;;;;;5456418;26;20006;-78
2024/04/11 06:16:26;;;;;;;7.75;3.85;;;10.70;93.60;;;;;;5454641;26;19999;-77
2024/04/11 06:18:54;;;;;;;8.63;4.05;;;10.70;93.60;;;;;;5485927;26;20006;-77
2024/04/11 06:21:32;;;;;;;7.30;4.75;;;10.80;93.30;;;;;;5469043;26;20010;-77
2024/04/11 06:24:00;;;;;;;22.02;5.00;;;10.90;93.20;;;;;;5462585;26;20003;-78
2024/04/11 06:26:32;;;;;;;8.88;4.13;;;11.00;93.10;;;;;;5455498;26;20009;-77
2024/04/11 06:28:59;;;;;;;16.40;4.15;;;11.00;93.00;;;;;;5465264;26;20040;-77
2024/04/11 06:31:30;;;;;;;11.65;4.25;;;11.10;92.80;;;;;;5470707;26;20002;-78
2024/04/11 06:33:58;;;;;;;7.20;4.20;;;11.20;92.20;;;;;;5464951;26;20007;-77
2024/04/11 06:36:25;;;;;;;7.70;4.18;;;11.30;91.90;;;;;;5463083;26;20080;-77
2024/04/11 06:38:55;;;;;;;5.85;4.10;;;11.30;91.60;;;;;;5471582;26;20005;-78
2024/04/11 06:41:24;;;;;;;8.10;4.15;;;11.40;90.70;;;;;;5459052;26;20000;-78
2024/04/11 06:43:52;;;;;;;10.43;5.05;;;11.50;90.60;;;;;;5469150;26;20298;-77
2024/04/11 06:46:23;;;;;;;9.95;3.92;;;11.50;90.80;;;;;;5426394;26;20037;-78
2024/04/11 06:48:50;;;;;;;11.13;4.57;;;11.60;90.30;;;;;;5475860;26;20009;-78
2024/04/11 06:51:20;;;;;;;12.63;4.65;;;11.80;88.50;;;;;;5480194;26;19998;-79
2024/04/11 06:53:47;;;;;;;6.65;4.28;;;11.90;88.20;;;;;;5480247;26;20030;-78
2024/04/11 06:56:17;;;;;;;13.60;4.38;;;12.00;88.40;;;;;;5491321;26;20009;-77
2024/04/11 06:58:45;;;;;;;8.52;4.60;;;12.20;88.00;;;;;;5488875;26;20291;-77
2024/04/11 07:01:15;;;;;;;7.50;4.00;;;12.40;86.60;;;;;;5475839;26;19999;-78
2024/04/11 07:03:43;;;;;;;7.65;3.95;;;12.50;84.60;;;;;;5480648;26;20031;-77
2024/04/11 07:08:58;;;;;;;7.03;4.07;;;12.90;81.10;;;;;;5469719;26;20420;-78
2024/04/11 07:11:32;;;;;;;9.70;5.03;;;13.00;80.20;;;;;;5476249;26;20013;-78
2024/04/11 07:14:05;;;;;;;9.85;4.97;;;13.10;80.50;;;;;;5472338;26;20002;-78
2024/04/11 07:16:40;;;;;;;10.10;5.00;;;13.30;80.80;;;;;;5466357;26;19994;-78
2024/04/11 07:19:08;;;;;;;14.05;5.65;;;13.40;79.70;;;;;;5468536;26;19998;-78
2024/04/11 07:21:38;;;;;;;15.55;5.57;;;13.50;77.50;;;;;;5476072;26;20034;-77
2024/04/11 07:24:06;;;;;;;11.45;5.68;;;13.50;75.70;;;;;;5477111;26;20003;-78
2024/04/11 07:26:36;;;;;;;9.70;5.57;;;13.70;75.50;;;;;;5480373;26;20006;-78
2024/04/11 07:29:06;;;;;;;9.95;4.90;;;13.80;75.10;;;;;;5452068;26;20004;-78
2024/04/11 07:31:35;;;;;;;8.88;3.83;;;13.90;74.00;;;;;;5456896;26;19995;-78
2024/04/11 07:34:02;;;;;;;4.88;3.50;;;14.00;72.40;;;;;;5489372;26;20009;-78
2024/04/11 07:36:32;;;;;;;8.18;4.60;;;14.10;71.20;;;;;;5469139;26;20076;-78
2024/04/11 07:39:01;;;;;;;8.95;3.92;;;14.20;72.10;;;;;;5480824;26;20014;-78
2024/04/11 07:41:44;;;;;;;10.82;4.30;;;14.30;71.40;;;;;;5462767;26;20292;-78
2024/04/11 07:44:22;;;;;;;9.13;5.75;;;14.40;70.80;;;;;;5466120;26;20010;-78
2024/04/11 07:46:53;;;;;;;5.43;3.15;;;14.50;70.00;;;;;;5472523;26;20022;-78
2024/04/11 07:49:40;;;;;;;8.77;4.50;;;14.60;67.60;;;;;;5441821;26;19998;-78
2024/04/11 07:52:10;;;;;;;7.50;3.80;;;14.60;68.10;;;;;;5467996;26;20054;-78
2024/04/11 07:54:39;;;;;;;5.32;3.58;;;14.60;69.60;;;;;;5469907;26;20002;-78
2024/04/11 07:57:16;;;;;;;7.45;3.80;;;14.70;69.00;;;;;;5474061;26;19994;-78
2024/04/11 07:59:44;;;;;;;6.82;4.20;;;14.70;69.10;;;;;;5480801;26;19998;-78
2024/04/11 08:02:14;;;;;;;6.35;4.30;;;14.80;70.50;;;;;;5482774;26;19999;-78
2024/04/11 08:04:42;;;;;;;11.25;4.05;;;15.00;70.20;;;;;;5507332;26;20093;-78
2024/04/11 08:07:09;;;;;;;13.35;4.25;;;15.10;67.40;;;;;;5481065;26;20018;-78
2024/04/11 08:09:44;;;;;;;9.18;4.30;;;15.20;66.30;;;;;;5455917;26;20014;-78
2024/04/11 08:12:14;;;;;;;13.90;4.18;;;15.30;67.50;;;;;;5455438;26;20007;-78
2024/04/11 08:14:41;;;;;;;9.90;4.07;;;15.40;66.40;;;;;;5458559;26;20293;-78
2024/04/11 08:17:13;;;;;;;5.05;3.72;;;15.60;65.40;;;;;;5454900;26;20020;-78
2024/04/11 08:19:42;;;;;;;8.25;4.07;;;15.70;64.30;;;;;;5462872;26;20045;-78
2024/04/11 08:22:23;;;;;;;6.32;3.80;;;15.80;62.90;;;;;;5461985;26;20006;-78
2024/04/11 08:24:51;;;;;;;6.53;3.75;;;15.90;63.60;;;;;;5474430;26;20005;-78
2024/04/11 08:27:18;;;;;;;6.28;4.00;;;16.00;62.60;;;;;;5462288;26;20002;-78
2024/04/11 08:29:47;;;;;;;10.95;4.35;;;16.10;59.20;;;;;;5471307;26;20009;-78
2024/04/11 08:32:14;;;;;;;9.60;4.90;;;16.00;59.60;;;;;;5470025;26;20001;-78
2024/04/11 08:34:41;;;;;;;10.75;5.13;;;16.20;60.30;;;;;;5474188;26;20439;-79
2024/04/11 08:37:08;;;;;;;11.48;6.03;;;16.30;60.50;;;;;;5465694;26;20299;-78
2024/04/11 08:39:35;;;;;;;11.52;5.90;;;16.40;62.30;;;;;;5473839;26;20010;-78
2024/04/11 08:42:08;;;;;;;8.18;5.40;;;16.40;60.70;;;;;;5477182;26;19994;-78
2024/04/11 08:44:36;;;;;;;11.50;5.22;;;16.50;61.60;;;;;;5480436;26;20025;-78
2024/04/11 08:47:03;;;;;;;10.93;5.47;;;16.80;60.70;;;;;;5455438;26;20003;-78
2024/04/11 08:49:30;;;;;;;10.55;5.53;;;17.00;61.20;;;;;;5455345;26;20017;-78
2024/04/11 08:52:01;;;;;;;7.95;4.97;;;17.10;59.30;;;;;;5456685;26;19999;-78
2024/04/11 08:54:29;;;;;;;9.20;5.25;;;17.20;60.30;;;;;;5482383;26;20006;-79
2024/04/11 08:56:56;;;;;;;10.93;4.90;;;17.30;60.30;;;;;;5473520;26;20009;-78
2024/04/11 08:59:25;;;;;;;9.90;4.75;;;17.40;58.80;;;;;;5464642;26;20505;-78
2024/04/11 09:01:53;;;;;;;7.50;4.18;;;17.50;59.80;;;;;;5464667;26;20026;-78
2024/04/11 09:04:20;;;;;;;13.07;4.22;;;17.60;59.80;;;;;;5469894;26;20002;-78
2024/04/11 09:06:53;;;;;;;7.32;3.60;;;17.80;58.40;;;;;;5471251;26;19994;-78
2024/04/11 09:09:23;;;;;;;7.40;4.10;;;18.00;58.30;;;;;;5435727;26;20041;-79
2024/04/11 09:11:52;;;;;;;10.65;4.10;;;18.10;56.70;;;;;;5465966;26;20001;-79
2024/04/11 09:14:20;;;;;;;6.47;3.60;;;18.30;56.90;;;;;;5471430;26;20300;-79
2024/04/11 09:17:01;;;;;;;8.20;4.15;;;18.50;56.10;;;;;;5456165;26;20027;-78
2024/04/11 09:19:32;;;;;;;7.85;3.97;;;18.50;55.10;;;;;;5473292;26;19999;-79
2024/04/11 09:21:59;;;;;;;6.35;3.53;;;18.60;55.60;;;;;;5479424;26;20006;-79
2024/04/11 09:24:28;;;;;;;7.13;3.65;;;18.70;56.80;;;;;;5481320;26;20010;-79
2024/04/11 09:26:59;;;;;;;7.35;3.83;;;19.00;57.60;;;;;;5487581;26;20005;-79
2024/04/11 09:29:26;;;;;;;10.60;4.30;;;19.20;56.30;;;;;;5467833;26;20023;-79
2024/04/11 09:31:57;;;;;;;9.88;4.28;;;19.30;55.70;;;;;;5453454;26;20005;-79
2024/04/11 09:34:30;;;;;;;6.03;4.15;;;19.50;56.00;;;;;;5480305;26;19999;-79
2024/04/11 09:37:00;;;;;;;8.00;3.55;;;19.60;55.60;;;;;;5475985;26;19990;-79
2024/04/11 09:39:45;;;;;;;9.75;3.72;;;19.80;53.50;;;;;;5466999;26;20078;-79
2024/04/11 09:42:25;;;;;;;6.32;4.18;;;19.90;55.00;;;;;;5466045;26;20418;-78
2024/04/11 09:44:58;;;;;;;7.55;4.22;;;19.90;52.90;;;;;;5466751;26;20008;-79
2024/04/11 09:47:31;;;;;;;8.10;4.07;;;20.00;52.20;;;;;;5466886;26;20035;-79
2024/04/11 09:50:04;;;;;;;13.52;4.07;;;20.20;54.00;;;;;;5476161;26;20361;-79
2024/04/11 09:52:39;;;;;;;9.27;3.83;;;20.20;52.40;;;;;;5478830;26;20001;-79
2024/04/11 09:55:15;;;;;;;8.32;3.90;;;20.30;54.40;;;;;;5435096;26;20060;-79
2024/04/11 09:57:46;;;;;;;5.50;3.58;;;20.50;51.90;;;;;;5477038;26;20075;-79
2024/04/11 10:00:48;;;;;;;6.20;3.42;;;20.70;54.40;;;;;;5514690;26;20082;-79
2024/04/11 10:03:10;;;;;;;7.78;4.10;;;20.90;52.60;;;;;;5481299;26;20009;-79
2024/04/11 10:05:38;;;;;;;4.70;3.22;;;21.20;49.10;;;;;;5486534;26;20368;-79
2024/04/11 10:08:16;;;;;;;10.13;3.85;;;21.10;49.90;;;;;;5470175;26;20011;-80
2024/04/11 10:10:50;;;;;;;8.85;3.35;;;21.30;50.50;;;;;;5458938;26;20011;-79
2024/04/11 10:13:22;;;;;;;7.07;3.47;;;21.40;50.10;;;;;;5468903;26;20010;-79
2024/04/11 10:16:06;;;;;;;8.13;2.97;;;21.60;48.40;;;;;;5463893;26;20009;-79
2024/04/11 10:18:45;;;;;;;6.30;3.13;;;21.80;50.10;;;;;;5463352;26;20071;-79
2024/04/11 10:21:27;;;;;;;3.83;2.63;;;22.10;48.30;;;;;;5464839;26;20002;-79
2024/04/11 10:24:16;;;;;;;9.80;3.20;;;22.30;44.80;;;;;;5468100;26;20362;-79
2024/04/11 10:26:54;;;;;;;8.90;3.20;;;22.30;45.20;;;;;;5466792;26;19999;-79
2024/04/11 10:29:26;;;;;;;3.90;3.10;;;22.40;47.80;;;;;;5461398;26;19999;-80
2024/04/11 10:31:58;;;;;;;7.80;3.70;;;22.60;46.10;;;;;;5474780;26;20448;-79
2024/04/11 10:34:34;;;;;;;6.10;3.28;;;22.70;46.20;;;;;;5479641;26;20011;-79
2024/04/11 10:37:12;;;;;;;6.13;3.33;;;22.80;46.40;;;;;;5482078;26;19998;-79
2024/04/11 10:39:39;;;;;;;10.32;3.08;;;23.00;46.10;;;;;;5449345;26;20003;-80
2024/04/11 10:42:07;;;;;;;3.53;2.60;;;23.20;45.20;;;;;;5486475;26;20063;-79
2024/04/11 10:44:38;;;;;;;5.63;2.55;;;23.40;45.00;;;;;;5486303;26;20422;-79
2024/04/11 10:47:13;;;;;;;6.80;3.47;;;23.50;43.50;;;;;;5482203;26;20009;-80
2024/04/11 10:49:45;;;;;;;4.35;2.33;;;23.40;41.90;;;;;;5474271;26;19999;-79
2024/04/11 10:52:12;;;;;;;6.38;2.70;;;23.40;43.60;;;;;;5457770;26;19998;-79
2024/04/11 10:54:40;;;;;;;3.53;2.22;;;23.50;44.10;;;;;;5466593;26;20012;-79
2024/04/11 10:57:14;;;;;;;5.72;2.45;;;23.50;44.50;;;;;;5465157;26;20194;-79
2024/04/11 10:59:50;;;;;;;5.63;2.75;;;23.70;45.20;;;;;;5469332;26;20014;-79
2024/04/11 11:02:23;;;;;;;5.32;2.35;;;23.90;43.40;;;;;;5471330;26;20006;-79
2024/04/11 11:04:54;;;;;;;5.80;2.50;;;24.00;43.20;;;;;;5463036;26;20006;-79
2024/04/11 11:07:31;;;;;;;5.93;2.45;;;23.90;44.30;;;;;;5464641;26;19998;-79
2024/04/11 11:09:59;;;;;;;5.60;2.40;;;24.10;44.50;;;;;;5461051;26;20002;-79
2024/04/11 11:12:26;;;;;;;5.93;2.95;;;24.30;43.50;;;;;;5478881;26;20069;-79
2024/04/11 11:14:53;;;;;;;8.65;2.75;;;24.40;42.90;;;;;;5483964;26;20005;-79
2024/04/11 11:17:27;;;;;;;7.03;2.45;;;24.70;44.10;;;;;;5485834;26;20026;-79
2024/04/11 11:19:55;;;;;;;6.80;3.13;;;24.90;43.40;;;;;;5426498;26;19996;-80
2024/04/11 11:22:33;;;;;;;6.13;2.70;;;25.20;41.20;;;;;;5485798;26;20005;-80
2024/04/11 11:25:01;;;;;;;4.70;2.75;;;25.30;41.90;;;;;;5483023;26;20064;-80
2024/04/11 11:27:33;;;;;;;3.70;2.63;;;25.40;40.60;;;;;;5478173;26;20416;-80
2024/04/11 11:30:00;;;;;;;5.55;3.28;;;25.50;40.00;;;;;;5470272;26;20718;-79
2024/04/11 11:32:35;;;;;;;5.03;2.88;;;25.40;39.90;;;;;;5463693;26;20010;-79
2024/04/11 11:35:05;;;;;;;4.40;2.67;;;25.10;39.80;;;;;;5469573;26;19998;-80
2024/04/11 11:37:32;;;;;;;10.95;3.50;;;25.10;41.50;;;;;;5471207;26;20010;-79
2024/04/11 11:40:37;;;;;;;8.25;3.00;;;25.30;39.60;;;;;;5472769;26;20007;-80
2024/04/11 11:42:52;;;;;;;6.18;2.92;;;25.40;40.20;;;;;;5475395;26;20010;-80
2024/04/11 11:45:28;;;;;;;5.00;3.10;;;25.70;40.90;;;;;;5480525;26;20077;-79
2024/04/11 11:48:12;;;;;;;6.07;3.22;;;25.90;39.10;;;;;;5479271;26;20296;-79
2024/04/11 11:50:40;;;;;;;6.22;3.35;;;25.90;38.30;;;;;;5462225;26;20029;-79
2024/04/11 11:53:25;;;;;;;4.90;2.65;;;26.30;38.60;;;;;;5458670;26;20072;-80
2024/04/11 11:55:57;;;;;;;4.97;2.63;;;26.60;40.00;;;;;;5484961;26;20010;-80
2024/04/11 11:58:34;;;;;;;6.55;3.03;;;27.00;40.00;;;;;;5447878;26;20012;-80
2024/04/11 12:01:19;;;;;;;5.65;2.80;;;27.30;39.30;;;;;;5473966;26;20006;-80
2024/04/11 12:03:55;;;;;;;7.00;3.00;;;27.80;37.50;;;;;;5464839;26;19999;-80
2024/04/11 12:06:24;;;;;;;8.43;3.45;;;28.20;37.20;;;;;;5455891;26;20006;-80
2024/04/11 12:08:51;;;;;;;5.60;3.13;;;28.60;36.50;;;;;;5477684;26;20004;-80
2024/04/11 12:11:21;;;;;;;5.30;2.70;;;28.90;34.30;;;;;;5475095;26;20021;-80
2024/04/11 12:14:02;;;;;;;4.20;2.58;;;29.00;34.90;;;;;;5440836;26;20006;-80
2024/04/11 12:16:38;;;;;;;5.30;3.05;;;29.40;36.10;;;;;;5468936;26;20015;-80
2024/04/11 12:19:09;;;;;;;4.18;2.50;;;29.90;33.40;;;;;;5468931;26;19995;-80
2024/04/11 12:21:44;;;;;;;4.18;2.95;;;30.30;33.40;;;;;;5476396;26;20005;-80
2024/04/11 12:24:14;;;;;;;4.32;2.70;;;30.50;34.30;;;;;;5473526;26;20414;-80
2024/04/11 12:26:42;;;;;;;5.63;2.97;;;30.80;33.00;;;;;;5476578;26;19999;-80
2024/04/11 12:29:11;;;;;;;7.43;2.97;;;31.00;30.30;;;;;;5478727;26;19995;-80
2024/04/11 12:31:38;;;;;;;4.13;2.42;;;30.90;30.70;;;;;;5480506;26;19998;-80
2024/04/11 12:34:09;;;;;;;5.95;2.70;;;31.00;31.60;;;;;;5488229;26;20485;-81
2024/04/11 12:39:31;;;;;;;7.80;2.50;;;31.70;32.90;;;;;;5459035;26;20010;-80
2024/04/11 12:42:00;;;;;;;10.02;2.55;;;32.20;30.40;;;;;;5481145;26;20398;-80
2024/04/11 12:44:31;;;;;;;6.70;2.95;;;32.70;30.20;;;;;;5462313;26;19995;-80
2024/04/11 12:47:00;;;;;;;4.78;2.47;;;33.00;28.90;;;;;;5465364;26;20013;-80
2024/04/11 12:49:29;;;;;;;7.20;2.67;;;33.20;28.90;;;;;;5467850;26;20367;-80
2024/04/11 12:52:00;;;;;;;5.95;2.50;;;33.20;28.20;;;;;;5470481;26;19995;-81
2024/04/11 12:54:27;;;;;;;5.47;2.92;;;33.30;28.20;;;;;;5468445;26;20408;-81
2024/04/11 12:57:04;;;;;;;3.70;2.65;;;33.50;28.50;;;;;;5461939;26;20314;-80
2024/04/11 12:59:37;;;;;;;3.95;2.85;;;33.60;28.80;;;;;;5466150;26;20035;-80
2024/04/11 13:02:08;;;;;;;6.50;2.85;;;33.80;28.20;;;;;;5464251;26;20002;-81
2024/04/11 13:04:37;;;;;;;7.13;3.22;;;33.70;27.80;;;;;;5476087;26;20029;-81
2024/04/11 13:07:10;;;;;;;7.88;3.08;;;33.70;27.90;;;;;;5468497;26;20009;-82
2024/04/11 13:09:53;;;;;;;6.70;3.20;;;33.80;27.40;;;;;;5451030;26;19994;-80
2024/04/11 13:12:22;;;;;;;5.95;2.65;;;34.10;27.30;;;;;;5481659;26;20043;-80